createdAt,value
2019-02-21T00:01:41.503Z,8.27
2019-02-21T00:04:09.521Z,7.77
2019-02-21T00:06:39.016Z,6.97
2019-02-21T00:09:08.347Z,7.53
2019-02-21T00:11:38.321Z,7.50
2019-02-21T00:14:08.105Z,8.37
2019-02-21T00:16:37.433Z,7.23
2019-02-21T00:19:07.987Z,8.37
2019-02-21T00:21:37.329Z,7.13
2019-02-21T00:24:06.697Z,8.57
2019-02-21T00:26:36.136Z,8.10
2019-02-21T00:29:05.477Z,8.43
2019-02-21T00:31:34.747Z,7.37
2019-02-21T00:34:04.205Z,7.60
2019-02-21T00:36:33.448Z,8.07
2019-02-21T00:39:01.483Z,7.43
2019-02-21T00:41:29.503Z,8.30
2019-02-21T00:43:57.821Z,7.97
2019-02-21T00:46:25.938Z,8.20
2019-02-21T00:48:55.915Z,7.83
2019-02-21T00:51:23.988Z,7.90
2019-02-21T00:53:51.989Z,8.00
2019-02-21T00:56:20.032Z,7.80
2019-02-21T00:58:48.495Z,7.83
2019-02-21T01:01:16.634Z,8.13
2019-02-21T01:03:46.674Z,8.17
2019-02-21T01:06:14.680Z,8.30
2019-02-21T01:08:42.730Z,8.30
2019-02-21T01:11:10.710Z,8.10
2019-02-21T01:13:39.559Z,8.17
2019-02-21T01:16:07.562Z,8.47
2019-02-21T01:18:35.585Z,8.80
2019-02-21T01:21:03.605Z,8.77
2019-02-21T01:23:31.657Z,8.80
2019-02-21T01:26:00.157Z,8.80
2019-02-21T01:28:28.232Z,9.97
2019-02-21T01:30:57.156Z,9.97
2019-02-21T01:33:25.434Z,10.07
2019-02-21T01:35:53.405Z,10.27
2019-02-21T01:38:21.502Z,10.33
2019-02-21T01:40:49.520Z,11.27
2019-02-21T01:43:18.225Z,10.40
2019-02-21T01:45:46.202Z,11.93
2019-02-21T01:48:14.291Z,10.53
2019-02-21T01:50:42.586Z,12.00
2019-02-21T01:53:10.666Z,11.73
2019-02-21T01:55:38.673Z,12.73
2019-02-21T01:58:06.750Z,13.17
2019-02-21T02:00:35.722Z,12.90
2019-02-21T02:03:03.692Z,12.80
2019-02-21T02:05:31.715Z,13.13
2019-02-21T02:07:59.697Z,13.90
2019-02-21T02:10:28.031Z,14.03
2019-02-21T02:12:55.992Z,12.70
2019-02-21T02:15:24.031Z,13.87
2019-02-21T02:17:52.019Z,14.00
2019-02-21T02:20:20.041Z,13.93
2019-02-21T02:22:49.377Z,13.53
2019-02-21T02:25:17.474Z,13.73
2019-02-21T02:27:45.481Z,13.13
2019-02-21T02:30:13.557Z,13.23
2019-02-21T02:32:41.639Z,14.43
2019-02-21T02:35:09.669Z,15.57
2019-02-21T02:37:37.653Z,15.63
2019-02-21T02:40:05.993Z,15.00
2019-02-21T02:42:33.999Z,14.33
2019-02-21T02:45:02.061Z,15.47
2019-02-21T02:47:30.001Z,14.50
2019-02-21T02:49:58.020Z,14.13
2019-02-21T02:52:26.014Z,14.53
2019-02-21T02:54:54.025Z,15.63
2019-02-21T02:57:22.126Z,16.07
2019-02-21T02:59:50.148Z,15.43
2019-02-21T03:02:18.127Z,15.93
2019-02-21T03:04:46.179Z,16.87
2019-02-21T03:07:16.582Z,16.47
2019-02-21T03:09:44.578Z,15.83
2019-02-21T03:12:12.554Z,16.73
2019-02-21T03:14:40.549Z,17.10
2019-02-21T03:17:08.576Z,15.93
2019-02-21T03:19:36.617Z,15.93
2019-02-21T03:22:04.580Z,15.83
2019-02-21T03:24:32.719Z,17.23
2019-02-21T03:27:00.709Z,17.40
2019-02-21T03:29:28.788Z,17.97
2019-02-21T03:31:56.814Z,18.23
2019-02-21T03:34:24.870Z,17.33
2019-02-21T03:36:52.859Z,17.23
2019-02-21T03:39:20.873Z,17.17
2019-02-21T03:41:48.856Z,17.17
2019-02-21T03:44:21.089Z,18.50
2019-02-21T03:46:49.103Z,18.83
2019-02-21T03:49:17.103Z,19.37
2019-02-21T03:51:45.124Z,18.97
2019-02-21T03:54:14.578Z,17.90
2019-02-21T03:56:42.617Z,20.30
2019-02-21T03:59:10.604Z,19.20
2019-02-21T04:01:39.034Z,20.07
2019-02-21T04:04:07.045Z,19.50
2019-02-21T04:06:35.485Z,20.17
2019-02-21T04:09:04.050Z,21.07
2019-02-21T04:11:33.012Z,20.30
2019-02-21T04:14:01.006Z,21.30
2019-02-21T04:16:30.012Z,21.00
2019-02-21T04:18:58.074Z,21.50
2019-02-21T04:21:26.066Z,21.67
2019-02-21T04:23:54.050Z,20.50
2019-02-21T04:26:23.324Z,20.53
2019-02-21T04:28:51.570Z,22.13
2019-02-21T04:31:19.544Z,22.43
2019-02-21T04:33:48.926Z,21.50
2019-02-21T04:36:17.103Z,22.60
2019-02-21T04:38:45.412Z,21.87
2019-02-21T04:41:13.428Z,22.83
2019-02-21T04:43:41.541Z,21.67
2019-02-21T04:46:09.513Z,22.67
2019-02-21T04:48:37.584Z,45.60
2019-02-21T04:51:05.576Z,22.17
2019-02-21T04:53:33.621Z,22.03
2019-02-21T04:56:02.978Z,22.83
2019-02-21T04:58:31.205Z,23.80
2019-02-21T05:00:59.268Z,23.40
2019-02-21T05:03:27.376Z,21.23
2019-02-21T05:05:55.406Z,23.13
2019-02-21T05:08:23.474Z,23.97
2019-02-21T05:10:51.571Z,24.27
2019-02-21T05:13:19.588Z,24.30
2019-02-21T05:15:48.034Z,25.17
2019-02-21T05:18:16.098Z,23.87
2019-02-21T05:20:44.117Z,23.43
2019-02-21T05:23:12.183Z,22.20
2019-02-21T05:25:40.308Z,24.50
2019-02-21T05:28:36.666Z,23.03
2019-02-21T05:31:22.554Z,25.33
2019-02-21T05:33:58.318Z,24.37
2019-02-21T05:37:00.576Z,23.90
2019-02-21T05:39:56.413Z,24.03
2019-02-21T05:42:46.565Z,25.90
2019-02-21T05:45:20.736Z,23.43
2019-02-21T05:48:12.887Z,24.30
2019-02-21T05:50:48.858Z,26.53
2019-02-21T05:53:41.983Z,29.15
2019-02-21T05:56:44.384Z,25.17
2019-02-21T05:59:36.808Z,25.03
2019-02-21T06:02:17.282Z,25.63
2019-02-21T06:05:00.748Z,25.47
2019-02-21T06:07:34.438Z,26.20
2019-02-21T06:10:18.797Z,24.83
2019-02-21T06:13:20.779Z,24.40
2019-02-21T06:16:22.952Z,25.83
2019-02-21T06:19:12.866Z,26.57
2019-02-21T06:22:10.147Z,23.87
2019-02-21T06:24:36.643Z,24.90
2019-02-21T06:27:12.188Z,26.17
2019-02-21T06:29:52.161Z,25.37
2019-02-21T06:32:20.307Z,26.20
2019-02-21T06:34:48.408Z,25.57
2019-02-21T06:37:16.603Z,24.57
2019-02-21T06:39:46.273Z,26.20
2019-02-21T06:42:14.427Z,25.47
2019-02-21T06:44:44.086Z,23.33
2019-02-21T06:47:12.170Z,26.43
2019-02-21T06:49:40.163Z,25.43
2019-02-21T06:52:08.607Z,25.77
2019-02-21T06:54:36.748Z,27.67
2019-02-21T06:57:05.940Z,25.13
2019-02-21T06:59:43.376Z,23.20
2019-02-21T07:02:07.139Z,24.47
2019-02-21T07:04:36.486Z,23.53
2019-02-21T07:07:06.309Z,24.53
2019-02-21T07:09:34.489Z,25.88
2019-02-21T07:12:02.542Z,24.57
2019-02-21T07:14:30.572Z,25.37
2019-02-21T07:16:59.672Z,25.23
2019-02-21T07:19:30.259Z,24.43
2019-02-21T07:21:58.313Z,24.53
2019-02-21T07:24:27.360Z,23.30
2019-02-21T07:26:55.461Z,23.27
2019-02-21T07:29:23.766Z,25.60
2019-02-21T07:31:51.850Z,24.17
2019-02-21T07:34:20.471Z,24.17
2019-02-21T07:36:50.081Z,25.88
2019-02-21T07:39:20.712Z,24.27
2019-02-21T07:41:55.707Z,23.53
2019-02-21T07:44:23.671Z,23.13
2019-02-21T07:46:53.446Z,23.57
2019-02-21T07:49:21.794Z,23.27
2019-02-21T07:51:49.852Z,23.47
2019-02-21T07:54:17.901Z,24.43
2019-02-21T07:56:47.553Z,23.30
2019-02-21T07:59:16.323Z,24.23
2019-02-21T08:01:44.339Z,24.53
2019-02-21T08:04:12.424Z,23.33
2019-02-21T08:06:40.505Z,22.93
2019-02-21T08:09:09.060Z,23.13
2019-02-21T08:11:37.069Z,22.90
2019-02-21T08:14:06.016Z,23.57
2019-02-21T08:16:34.491Z,23.17
2019-02-21T08:19:04.614Z,25.10
2019-02-21T08:21:32.983Z,24.60
2019-02-21T08:24:00.984Z,24.67
2019-02-21T08:26:29.269Z,24.87
2019-02-21T08:28:57.386Z,26.30
2019-02-21T08:31:25.501Z,24.30
2019-02-21T08:34:05.997Z,25.37
2019-02-21T08:36:35.820Z,26.33
2019-02-21T08:39:05.281Z,25.97
2019-02-21T08:41:33.385Z,24.30
2019-02-21T08:44:01.460Z,25.37
2019-02-21T08:46:30.087Z,24.43
2019-02-21T08:48:58.233Z,23.97
2019-02-21T08:51:26.435Z,25.20
2019-02-21T08:53:54.406Z,24.17
2019-02-21T08:56:22.429Z,25.93
2019-02-21T08:58:50.407Z,25.57
2019-02-21T09:01:19.260Z,25.33
2019-02-21T09:03:47.199Z,24.03
2019-02-21T09:06:15.304Z,25.77
2019-02-21T09:08:43.330Z,26.13
2019-02-21T09:11:12.375Z,25.70
2019-02-21T09:13:41.741Z,25.63
2019-02-21T09:16:13.285Z,24.50
2019-02-21T09:18:41.854Z,26.63
2019-02-21T09:21:10.265Z,26.87
2019-02-21T09:23:38.713Z,26.97
2019-02-21T09:26:06.713Z,27.23
2019-02-21T09:28:34.769Z,26.27
2019-02-21T09:31:02.931Z,24.27
2019-02-21T09:33:31.007Z,24.87
2019-02-21T09:36:00.128Z,25.10
2019-02-21T09:38:28.175Z,24.20
2019-02-21T09:40:56.208Z,24.37
2019-02-21T09:43:24.381Z,23.07
2019-02-21T09:45:52.435Z,25.03
2019-02-21T09:48:20.498Z,23.93
2019-02-21T09:50:48.648Z,24.60
2019-02-21T09:53:16.719Z,22.67
2019-02-21T09:55:44.746Z,24.13
2019-02-21T09:58:12.793Z,25.57
2019-02-21T10:00:41.038Z,22.63
2019-02-21T10:03:09.042Z,23.80
2019-02-21T10:05:38.455Z,23.47
2019-02-21T10:08:06.478Z,22.73
2019-02-21T10:10:34.495Z,23.37
2019-02-21T10:13:02.537Z,22.60
2019-02-21T10:15:31.496Z,22.70
2019-02-21T10:17:59.692Z,20.70
2019-02-21T10:20:28.076Z,22.85
2019-02-21T10:22:56.081Z,20.43
2019-02-21T10:25:26.043Z,19.80
2019-02-21T10:27:54.064Z,21.87
2019-02-21T10:30:22.618Z,19.53
2019-02-21T10:32:50.638Z,20.47
2019-02-21T10:35:18.632Z,20.73
2019-02-21T10:37:46.654Z,22.03
2019-02-21T10:40:14.857Z,19.83
2019-02-21T10:42:43.133Z,17.80
2019-02-21T10:45:12.509Z,17.87
2019-02-21T10:47:40.713Z,19.27
2019-02-21T10:50:10.125Z,18.33
2019-02-21T10:52:38.246Z,17.73
2019-02-21T10:55:06.439Z,17.30
2019-02-21T10:57:34.606Z,17.10
2019-02-21T11:00:02.734Z,18.10
2019-02-21T11:02:35.694Z,17.03
2019-02-21T11:05:03.783Z,17.53
2019-02-21T11:07:31.905Z,16.20
2019-02-21T11:09:59.951Z,17.37
2019-02-21T11:12:28.073Z,16.40
2019-02-21T11:14:56.250Z,16.77
2019-02-21T11:17:26.762Z,15.10
2019-02-21T11:19:54.804Z,14.77
2019-02-21T11:22:22.855Z,15.93
2019-02-21T11:24:53.711Z,15.47
2019-02-21T11:27:22.168Z,15.80
2019-02-21T11:29:50.293Z,14.83
2019-02-21T11:32:18.296Z,14.90
2019-02-21T11:34:46.332Z,14.57
2019-02-21T11:37:14.343Z,14.03
2019-02-21T11:39:42.433Z,14.27
2019-02-21T11:42:10.748Z,13.30
2019-02-21T11:44:39.095Z,13.73
2019-02-21T11:47:07.136Z,14.93
2019-02-21T11:49:35.190Z,14.97
2019-02-21T11:52:10.143Z,13.93
2019-02-21T11:54:32.900Z,13.83
2019-02-21T11:57:01.041Z,13.97
2019-02-21T11:59:29.098Z,13.00
2019-02-21T12:02:00.918Z,14.23
2019-02-21T12:04:28.781Z,12.50
2019-02-21T12:06:57.016Z,12.53
2019-02-21T12:09:25.171Z,14.40
2019-02-21T12:11:53.210Z,12.80
2019-02-21T12:14:21.350Z,13.13
2019-02-21T12:16:49.424Z,13.00
2019-02-21T12:19:17.455Z,13.90
2019-02-21T12:21:58.403Z,13.97
2019-02-21T12:24:16.712Z,12.67
2019-02-21T12:26:47.193Z,13.50
2019-02-21T12:29:15.274Z,13.40
2019-02-21T12:31:43.277Z,12.57
2019-02-21T12:34:11.334Z,13.57
2019-02-21T12:36:39.557Z,12.17
2019-02-21T12:39:07.868Z,13.90
2019-02-21T12:41:37.739Z,13.40
2019-02-21T12:44:05.811Z,12.90
2019-02-21T12:46:33.831Z,12.83
2019-02-21T12:49:03.515Z,13.13
2019-02-21T12:51:31.686Z,11.77
2019-02-21T12:53:59.892Z,12.77
2019-02-21T12:56:27.875Z,12.53
2019-02-21T12:58:55.953Z,12.07
2019-02-21T13:01:23.970Z,11.87
2019-02-21T13:03:52.072Z,11.03
2019-02-21T13:06:20.094Z,11.80
2019-02-21T13:08:48.190Z,11.77
2019-02-21T13:11:16.211Z,11.30
2019-02-21T13:13:44.278Z,11.50
2019-02-21T13:16:12.357Z,11.40
2019-02-21T13:18:40.501Z,11.07
2019-02-21T13:21:08.600Z,10.20
2019-02-21T13:23:37.552Z,8.83
2019-02-21T13:26:05.653Z,8.33
2019-02-21T13:28:33.717Z,8.27
2019-02-21T13:31:02.588Z,7.87
2019-02-21T13:33:31.700Z,7.97
2019-02-21T13:35:59.781Z,7.80
2019-02-21T13:38:30.259Z,7.30
2019-02-21T13:40:58.356Z,7.40
2019-02-21T13:43:26.423Z,8.03
2019-02-21T13:45:54.390Z,8.20
2019-02-21T13:48:22.437Z,8.10
2019-02-21T13:50:50.560Z,9.53
2019-02-21T13:53:18.607Z,8.90
2019-02-21T13:55:46.623Z,8.97
2019-02-21T13:58:14.771Z,8.07
2019-02-21T14:00:43.090Z,7.10
2019-02-21T14:03:11.238Z,8.00
2019-02-21T14:05:39.403Z,7.93
2019-02-21T14:08:09.144Z,8.37
2019-02-21T14:10:37.442Z,8.97
2019-02-21T14:13:05.516Z,8.77
2019-02-21T14:15:33.483Z,8.27
2019-02-21T14:18:04.008Z,8.57
2019-02-21T14:20:32.180Z,9.83
2019-02-21T14:23:00.499Z,9.67
2019-02-21T14:25:39.872Z,9.03
2019-02-21T14:27:58.316Z,8.70
2019-02-21T14:30:27.400Z,8.80
2019-02-21T14:32:55.447Z,9.00
2019-02-21T14:35:23.661Z,8.83
2019-02-21T14:37:51.788Z,9.43
2019-02-21T14:40:19.849Z,9.67
2019-02-21T14:42:47.957Z,8.90
2019-02-21T14:45:16.572Z,10.90
2019-02-21T14:47:45.285Z,10.10
2019-02-21T14:50:13.485Z,9.47
2019-02-21T14:52:41.563Z,9.70
2019-02-21T14:55:10.122Z,10.70
2019-02-21T14:57:41.222Z,9.80
2019-02-21T15:00:12.222Z,11.03
2019-02-21T15:02:40.234Z,13.37
2019-02-21T15:05:10.098Z,10.63
2019-02-21T15:07:38.561Z,11.23
2019-02-21T15:10:08.096Z,12.30
2019-02-21T15:12:37.375Z,11.90
2019-02-21T15:15:05.757Z,11.80
2019-02-21T15:17:34.796Z,12.13
2019-02-21T15:20:04.088Z,12.40
2019-02-21T15:22:32.349Z,12.37
2019-02-21T15:25:00.724Z,13.10
2019-02-21T15:27:29.022Z,12.63
2019-02-21T15:29:57.524Z,13.73
2019-02-21T15:32:25.801Z,12.30
2019-02-21T15:34:57.090Z,13.30
2019-02-21T15:37:25.121Z,12.00
2019-02-21T15:39:53.331Z,13.33
2019-02-21T15:42:22.142Z,13.20
2019-02-21T15:44:50.191Z,13.13
2019-02-21T15:47:18.445Z,12.77
2019-02-21T15:49:46.558Z,12.47
2019-02-21T15:52:22.189Z,12.50
2019-02-21T15:54:47.970Z,15.93
2019-02-21T15:57:16.624Z,13.97
2019-02-21T15:59:46.257Z,14.27
2019-02-21T16:02:14.329Z,19.20
2019-02-21T16:04:42.916Z,15.30
2019-02-21T16:07:14.027Z,14.10
2019-02-21T16:09:42.172Z,14.10
2019-02-21T16:12:10.238Z,13.93
2019-02-21T16:14:38.393Z,13.10
2019-02-21T16:17:06.371Z,14.07
2019-02-21T16:19:34.479Z,14.60
2019-02-21T16:22:02.475Z,14.37
2019-02-21T16:24:30.783Z,13.73
2019-02-21T16:26:59.438Z,14.03
2019-02-21T16:29:27.578Z,13.47
2019-02-21T16:31:57.643Z,13.60
2019-02-21T16:34:25.357Z,13.40
2019-02-21T16:37:02.115Z,14.17
2019-02-21T16:39:23.793Z,13.30
2019-02-21T16:41:51.951Z,13.40
2019-02-21T16:44:19.988Z,14.90
2019-02-21T16:46:48.616Z,16.13
2019-02-21T16:49:16.749Z,15.43
2019-02-21T16:51:44.842Z,14.87
2019-02-21T16:54:12.865Z,16.13
2019-02-21T16:56:41.508Z,14.97
2019-02-21T16:59:09.824Z,13.33
2019-02-21T17:01:39.744Z,13.80
2019-02-21T17:04:07.832Z,15.30
2019-02-21T17:06:36.025Z,14.77
2019-02-21T17:09:05.493Z,13.88
2019-02-21T17:11:33.455Z,13.27
2019-02-21T17:14:01.597Z,12.30
2019-02-21T17:16:30.137Z,13.00
2019-02-21T17:18:58.187Z,13.27
2019-02-21T17:21:26.266Z,11.67
2019-02-21T17:23:54.443Z,12.67
2019-02-21T17:26:22.487Z,13.20
2019-02-21T17:28:50.555Z,12.53
2019-02-21T17:31:18.626Z,13.30
2019-02-21T17:33:46.979Z,13.10
2019-02-21T17:36:21.215Z,13.03
2019-02-21T17:38:49.499Z,14.17
2019-02-21T17:41:17.535Z,12.73
2019-02-21T17:43:47.900Z,13.40
2019-02-21T17:46:15.448Z,12.13
2019-02-21T17:48:43.743Z,12.53
2019-02-21T17:51:11.942Z,13.87
2019-02-21T17:53:40.015Z,14.03
2019-02-21T17:56:08.060Z,13.67
2019-02-21T17:58:36.205Z,15.20
2019-02-21T18:01:05.123Z,15.60
2019-02-21T18:03:33.914Z,17.03
2019-02-21T18:06:02.083Z,17.57
2019-02-21T18:08:30.161Z,19.87
2019-02-21T18:10:58.231Z,19.17
2019-02-21T18:13:26.357Z,21.53
2019-02-21T18:15:55.584Z,23.20
2019-02-21T18:18:23.755Z,23.77
2019-02-21T18:20:52.116Z,23.77
2019-02-21T18:23:20.376Z,24.43
2019-02-21T18:25:52.672Z,27.67
2019-02-21T18:28:28.504Z,29.17
2019-02-21T18:30:57.092Z,25.80
2019-02-21T18:33:25.424Z,24.07
2019-02-21T18:35:58.229Z,25.57
2019-02-21T18:38:27.772Z,26.23
2019-02-21T18:40:58.314Z,26.03
2019-02-21T18:43:29.986Z,26.20
2019-02-21T18:45:58.794Z,29.45
2019-02-21T18:48:26.896Z,24.93
2019-02-21T18:50:56.271Z,27.10
2019-02-21T18:53:24.804Z,28.53
2019-02-21T18:55:57.137Z,29.83
2019-02-21T18:58:27.960Z,26.97
2019-02-21T19:00:57.179Z,28.13
2019-02-21T19:03:25.488Z,27.90
2019-02-21T19:05:57.039Z,31.75
2019-02-21T19:08:28.667Z,29.97
2019-02-21T19:10:57.118Z,29.57
2019-02-21T19:13:25.457Z,31.13
2019-02-21T19:15:54.885Z,32.03
2019-02-21T19:18:24.271Z,31.10
2019-02-21T19:20:52.719Z,33.27
2019-02-21T19:23:21.873Z,34.03
2019-02-21T19:25:50.066Z,36.50
2019-02-21T19:28:18.142Z,35.83
2019-02-21T19:30:51.392Z,36.77
2019-02-21T19:33:19.422Z,36.97
2019-02-21T19:35:48.613Z,35.87
2019-02-21T19:38:16.723Z,36.90
2019-02-21T19:40:44.837Z,37.00
2019-02-21T19:43:12.968Z,38.10
2019-02-21T19:45:41.030Z,36.63
2019-02-21T19:48:09.057Z,37.43
2019-02-21T19:50:44.968Z,40.03
2019-02-21T19:53:14.459Z,37.57
2019-02-21T19:55:42.715Z,39.30
2019-02-21T19:58:10.725Z,43.90
2019-02-21T20:00:38.802Z,41.23
2019-02-21T20:03:06.902Z,43.13
2019-02-21T20:05:35.012Z,42.93
2019-02-21T20:08:08.559Z,43.67
2019-02-21T20:10:36.256Z,43.27
2019-02-21T20:13:08.491Z,43.57
2019-02-21T20:15:39.979Z,43.67
2019-02-21T20:18:11.966Z,46.53
2019-02-21T20:20:40.166Z,46.37
2019-02-21T20:23:08.940Z,46.90
2019-02-21T20:26:18.477Z,47.73
2019-02-21T20:28:43.824Z,49.57
2019-02-21T20:31:12.682Z,49.10
2019-02-21T20:33:40.775Z,58.10
2019-02-21T20:36:09.039Z,46.50
2019-02-21T20:38:37.178Z,47.13
2019-02-21T20:41:05.370Z,48.77
2019-02-21T20:43:36.165Z,49.53
2019-02-21T20:46:04.298Z,48.93
2019-02-21T20:48:33.342Z,50.30
2019-02-21T20:51:02.420Z,49.17
2019-02-21T20:53:31.079Z,49.43
2019-02-21T20:55:59.295Z,49.97
2019-02-21T20:58:28.205Z,50.40
2019-02-21T21:00:57.146Z,51.17
2019-02-21T21:03:26.221Z,53.27
2019-02-21T21:05:56.612Z,49.87
2019-02-21T21:08:25.780Z,51.13
2019-02-21T21:10:54.695Z,48.23
2019-02-21T21:13:24.154Z,48.67
2019-02-21T21:15:52.291Z,49.80
2019-02-21T21:18:21.444Z,47.53
2019-02-21T21:20:51.040Z,49.37
2019-02-21T21:23:23.074Z,48.27
2019-02-21T21:25:54.282Z,50.53
2019-02-21T21:28:23.539Z,48.43
2019-02-21T21:30:51.910Z,48.90
2019-02-21T21:33:20.095Z,47.53
2019-02-21T21:35:48.557Z,51.10
2019-02-21T21:38:24.174Z,47.73
2019-02-21T21:40:47.098Z,46.30
2019-02-21T21:43:17.548Z,49.17
2019-02-21T21:45:46.042Z,49.23
2019-02-21T21:48:15.350Z,45.17
2019-02-21T21:50:45.661Z,48.07
2019-02-21T21:53:14.770Z,47.70
2019-02-21T21:55:43.323Z,47.87
2019-02-21T21:58:12.989Z,52.15
2019-02-21T22:00:43.138Z,47.73
2019-02-21T22:03:11.438Z,52.48
2019-02-21T22:05:40.171Z,45.40
2019-02-21T22:08:08.773Z,43.93
2019-02-21T22:10:38.193Z,44.10
2019-02-21T22:13:06.598Z,42.90
2019-02-21T22:15:35.382Z,42.80
2019-02-21T22:18:04.286Z,43.33
2019-02-21T22:20:32.347Z,44.27
2019-02-21T22:23:02.148Z,45.10
2019-02-21T22:25:33.720Z,44.10
2019-02-21T22:28:02.962Z,41.23
2019-02-21T22:30:32.021Z,42.10
2019-02-21T22:33:00.190Z,43.50
2019-02-21T22:35:28.604Z,43.30
2019-02-21T22:37:56.642Z,43.63
2019-02-21T22:40:24.742Z,46.17
2019-02-21T22:42:52.869Z,43.10
2019-02-21T22:45:20.853Z,43.77
2019-02-21T22:47:49.309Z,46.33
2019-02-21T22:50:17.408Z,45.27
2019-02-21T22:52:46.673Z,45.70
2019-02-21T22:55:15.296Z,45.83
2019-02-21T22:57:43.323Z,45.57
2019-02-21T23:00:37.834Z,46.30
2019-02-21T23:03:06.071Z,45.23
2019-02-21T23:06:08.623Z,46.27
2019-02-21T23:08:49.082Z,47.47
2019-02-21T23:11:17.094Z,46.27
2019-02-21T23:13:45.831Z,47.23
2019-02-21T23:16:14.535Z,46.20
2019-02-21T23:18:43.055Z,47.00
2019-02-21T23:21:11.656Z,42.23
2019-02-21T23:23:40.089Z,43.60
2019-02-21T23:26:09.014Z,41.37
2019-02-21T23:28:36.969Z,42.53
2019-02-21T23:31:05.039Z,42.27
2019-02-21T23:33:35.222Z,39.77
2019-02-21T23:36:03.223Z,37.60
2019-02-21T23:38:31.719Z,39.00
2019-02-21T23:40:59.822Z,39.70
2019-02-21T23:43:27.874Z,38.93
2019-02-21T23:45:55.877Z,36.77
2019-02-21T23:48:23.935Z,31.90
2019-02-21T23:50:52.103Z,32.33
2019-02-21T23:53:20.219Z,32.70
2019-02-21T23:55:48.392Z,30.97
2019-02-21T23:58:16.455Z,31.67
